Time;durP1;ratioP1;P1;durP2;ratioP2;P2;SDS_P1;SDS_P2;PMS_P1;PMS_P2;Temp;Humidity;BMP_temperature;BMP_pressure;BME280_temperature;BME280_humidity;BME280_pressure;Samples;Min_cycle;Max_cycle;Signal;HPM_P1;HPM_P2
2022/05/17 00:01:48;;;;;;;6.93;2.20;;;19.30;99.60;;;;;;5090801;28;20217;-72
2022/05/17 00:04:14;;;;;;;5.40;2.20;;;19.20;99.50;;;;;;5091336;28;20232;-73
2022/05/17 00:06:39;;;;;;;4.25;2.38;;;19.30;99.70;;;;;;5071825;28;20811;-71
2022/05/17 00:09:05;;;;;;;6.28;2.00;;;19.20;99.50;;;;;;5072302;28;20244;-72
2022/05/17 00:11:31;;;;;;;4.78;2.55;;;19.20;99.70;;;;;;5091014;28;20179;-72
2022/05/17 00:13:56;;;;;;;3.63;2.40;;;19.10;99.80;;;;;;5090783;28;20186;-72
2022/05/17 00:16:22;;;;;;;4.03;2.20;;;19.20;99.90;;;;;;5084317;28;20313;-73
2022/05/17 00:18:47;;;;;;;3.80;1.90;;;19.20;99.90;;;;;;5090263;28;20198;-73
2022/05/17 00:21:13;;;;;;;4.45;2.13;;;19.10;99.90;;;;;;5090910;28;20746;-73
2022/05/17 00:23:39;;;;;;;5.13;2.20;;;19.20;99.90;;;;;;5072765;28;20672;-72
2022/05/17 00:26:06;;;;;;;8.30;2.83;;;19.10;99.90;;;;;;5091501;28;20197;-73
2022/05/17 00:28:33;;;;;;;2.65;1.95;;;19.10;99.90;;;;;;5090107;28;20206;-72
2022/05/17 00:31:00;;;;;;;5.43;2.22;;;19.10;99.90;;;;;;5072700;28;20209;-73
2022/05/17 00:33:26;;;;;;;4.00;2.22;;;19.20;99.90;;;;;;5090545;28;20589;-73
2022/05/17 00:35:52;;;;;;;5.70;2.40;;;19.10;99.90;;;;;;5090973;28;20206;-72
2022/05/17 00:38:18;;;;;;;5.85;2.10;;;19.10;99.90;;;;;;5090557;28;20671;-72
2022/05/17 00:40:44;;;;;;;5.63;2.38;;;19.10;99.90;;;;;;5072581;28;20255;-72
2022/05/17 00:43:13;;;;;;;10.10;2.42;;;19.00;99.90;;;;;;5090857;28;20202;-72
2022/05/17 00:45:46;;;;;;;4.55;2.67;;;19.00;99.90;;;;;;5082916;28;20690;-73
2022/05/17 00:48:12;;;;;;;7.90;3.38;;;19.00;99.90;;;;;;5089709;28;20259;-73
2022/05/17 00:50:42;;;;;;;6.20;3.45;;;19.00;99.90;;;;;;5090670;28;20239;-73
2022/05/17 00:53:20;;;;;;;9.95;3.53;;;19.00;99.90;;;;;;5091302;28;20255;-73
2022/05/17 00:55:56;;;;;;;5.00;2.58;;;19.00;99.90;;;;;;5091126;28;20555;-73
2022/05/17 00:58:37;;;;;;;4.13;2.55;;;18.90;99.90;;;;;;5080161;28;20294;-73
2022/05/17 01:01:09;;;;;;;6.88;2.60;;;19.00;99.90;;;;;;5089288;28;20386;-73
2022/05/17 01:03:46;;;;;;;5.05;2.80;;;19.00;99.90;;;;;;5070087;28;20202;-73
2022/05/17 01:06:13;;;;;;;5.78;2.78;;;19.00;99.90;;;;;;5072240;28;20720;-72
2022/05/17 01:08:38;;;;;;;5.95;2.60;;;19.00;99.90;;;;;;5089599;28;20768;-73
2022/05/17 01:11:04;;;;;;;6.78;2.63;;;19.00;99.90;;;;;;5072858;28;20272;-73
2022/05/17 01:16:14;;;;;;;4.90;2.45;;;18.90;99.90;;;;;;5086660;28;20621;-71
2022/05/17 01:18:41;;;;;;;12.20;2.58;;;18.90;99.90;;;;;;5093196;28;20210;-73
2022/05/17 01:21:11;;;;;;;3.58;2.20;;;18.90;99.90;;;;;;5094081;28;20243;-73
2022/05/17 01:23:38;;;;;;;4.28;2.30;;;18.90;99.90;;;;;;5093978;28;20202;-73
2022/05/17 01:26:05;;;;;;;6.03;2.90;;;18.90;99.90;;;;;;5094499;28;20528;-73
2022/05/17 01:28:35;;;;;;;5.97;2.28;;;18.80;99.90;;;;;;5093128;28;20202;-72
2022/05/17 01:31:07;;;;;;;7.72;2.25;;;18.80;99.90;;;;;;5093978;28;20562;-72
2022/05/17 01:33:35;;;;;;;9.77;3.75;;;18.90;99.90;;;;;;5075573;28;20206;-73
2022/05/17 01:36:04;;;;;;;7.10;2.40;;;18.90;99.90;;;;;;5093895;28;20281;-73
2022/05/17 01:38:31;;;;;;;5.75;2.58;;;18.80;99.90;;;;;;5092958;28;20316;-73
2022/05/17 01:40:57;;;;;;;5.25;3.03;;;18.70;99.90;;;;;;5093754;28;20571;-73
2022/05/17 01:43:23;;;;;;;6.10;2.70;;;18.60;99.90;;;;;;5093678;28;20198;-74
2022/05/17 01:45:48;;;;;;;6.70;2.38;;;18.50;99.90;;;;;;5086260;28;20205;-74
2022/05/17 01:48:14;;;;;;;6.78;2.65;;;18.50;99.90;;;;;;5092871;28;20216;-73
2022/05/17 01:50:39;;;;;;;3.97;2.35;;;18.60;99.90;;;;;;5075196;28;20213;-73
2022/05/17 01:53:05;;;;;;;4.85;2.40;;;18.50;99.90;;;;;;5094197;28;20178;-74
2022/05/17 01:55:31;;;;;;;6.53;2.70;;;18.70;99.90;;;;;;5093326;28;20206;-73
2022/05/17 01:57:56;;;;;;;6.45;2.53;;;18.50;99.90;;;;;;5093086;28;20237;-73
2022/05/17 02:00:23;;;;;;;7.95;2.95;;;18.50;99.90;;;;;;5074635;28;20301;-73
2022/05/17 02:02:50;;;;;;;7.30;3.78;;;18.60;99.90;;;;;;5075251;28;20576;-73
2022/05/17 02:05:21;;;;;;;16.60;11.88;;;18.60;99.90;;;;;;5093813;28;20178;-73
2022/05/17 02:07:48;;;;;;;14.15;9.70;;;18.50;99.90;;;;;;5092738;28;20213;-74
2022/05/17 02:10:14;;;;;;;11.75;7.82;;;18.50;99.90;;;;;;5092813;28;20308;-73
2022/05/17 02:12:41;;;;;;;12.32;7.30;;;18.50;99.90;;;;;;5093225;28;20759;-73
2022/05/17 02:15:07;;;;;;;7.55;3.28;;;18.40;99.90;;;;;;5067358;28;20214;-73
2022/05/17 02:17:35;;;;;;;7.25;3.65;;;18.40;99.90;;;;;;5092718;28;20689;-73
2022/05/17 02:20:01;;;;;;;5.00;2.50;;;18.30;99.90;;;;;;5074697;28;20182;-73
2022/05/17 02:22:26;;;;;;;3.55;2.60;;;18.20;99.90;;;;;;5074692;28;20223;-73
2022/05/17 02:24:52;;;;;;;4.25;2.72;;;18.20;99.90;;;;;;5092777;28;20217;-73
2022/05/17 02:27:17;;;;;;;6.50;2.97;;;18.20;99.90;;;;;;5074745;28;20591;-73
2022/05/17 02:29:43;;;;;;;10.27;3.20;;;18.30;99.90;;;;;;5092147;28;20178;-72
2022/05/17 02:32:09;;;;;;;5.20;3.10;;;18.20;99.90;;;;;;5075119;28;20173;-73
2022/05/17 02:34:36;;;;;;;9.38;3.70;;;18.00;99.90;;;;;;5042050;28;20227;-73
2022/05/17 02:37:05;;;;;;;7.05;3.40;;;18.00;99.90;;;;;;5072476;28;20260;-72
2022/05/17 02:39:30;;;;;;;5.90;2.92;;;18.10;99.90;;;;;;5071156;28;20214;-74
2022/05/17 02:41:56;;;;;;;5.13;3.20;;;17.90;99.90;;;;;;5072155;28;20218;-73
2022/05/17 02:44:21;;;;;;;6.78;3.17;;;17.90;99.90;;;;;;5072360;28;20189;-72
2022/05/17 02:46:47;;;;;;;5.93;3.78;;;17.90;99.90;;;;;;5054045;28;20222;-73
2022/05/17 02:49:12;;;;;;;9.25;3.75;;;17.80;99.90;;;;;;5071498;28;20202;-73
2022/05/17 02:51:38;;;;;;;6.43;3.67;;;17.70;99.90;;;;;;5071834;28;20642;-73
2022/05/17 02:54:05;;;;;;;6.10;3.40;;;17.60;99.90;;;;;;5071962;28;20207;-73
2022/05/17 02:56:32;;;;;;;8.32;3.58;;;17.50;99.90;;;;;;5071777;28;20167;-73
2022/05/17 02:58:57;;;;;;;5.18;3.88;;;17.50;99.90;;;;;;5053859;28;20171;-73
2022/05/17 03:01:23;;;;;;;6.22;3.22;;;17.50;99.90;;;;;;5053781;28;20207;-71
2022/05/17 03:03:48;;;;;;;6.53;3.50;;;17.40;99.90;;;;;;5051833;28;20604;-74
2022/05/17 03:06:14;;;;;;;8.40;3.75;;;17.40;99.90;;;;;;5067407;28;20283;-75
2022/05/17 03:08:40;;;;;;;12.80;4.22;;;17.30;99.90;;;;;;5070686;28;20191;-72
2022/05/17 03:11:06;;;;;;;4.68;3.80;;;17.20;99.90;;;;;;5072328;28;20189;-73
2022/05/17 03:13:32;;;;;;;8.23;4.22;;;17.40;99.90;;;;;;5053547;28;20199;-74
2022/05/17 03:15:58;;;;;;;9.93;4.18;;;17.10;99.90;;;;;;5053662;28;20321;-73
2022/05/17 03:18:24;;;;;;;7.68;4.07;;;17.10;99.90;;;;;;5070588;28;20223;-73
2022/05/17 03:20:50;;;;;;;7.47;3.55;;;17.10;99.90;;;;;;5071394;28;20301;-73
2022/05/17 03:23:15;;;;;;;11.05;4.32;;;17.00;99.90;;;;;;5054383;28;20713;-74
2022/05/17 03:25:42;;;;;;;10.15;4.43;;;17.10;99.90;;;;;;5071052;28;20223;-73
2022/05/17 03:28:10;;;;;;;7.57;4.25;;;16.90;99.90;;;;;;5070582;28;20218;-74
2022/05/17 03:30:37;;;;;;;9.95;4.20;;;17.00;99.90;;;;;;5053201;28;20214;-73
2022/05/17 03:33:02;;;;;;;6.32;3.85;;;17.10;99.90;;;;;;5053370;28;20222;-73
2022/05/17 03:35:28;;;;;;;8.68;4.53;;;16.90;99.90;;;;;;5064215;28;20225;-73
2022/05/17 03:37:53;;;;;;;8.95;4.55;;;17.00;99.90;;;;;;5070741;28;20199;-72
2022/05/17 03:40:19;;;;;;;9.57;4.80;;;17.00;99.90;;;;;;5070750;28;20207;-73
2022/05/17 03:42:44;;;;;;;8.02;4.28;;;17.00;99.90;;;;;;5052925;28;20680;-73
2022/05/17 03:45:10;;;;;;;9.70;5.10;;;16.90;99.90;;;;;;5071174;28;20199;-73
2022/05/17 03:47:36;;;;;;;9.70;5.40;;;16.90;99.90;;;;;;5070595;28;20229;-73
2022/05/17 03:50:03;;;;;;;8.73;4.03;;;16.80;99.90;;;;;;5070859;28;20171;-73
2022/05/17 03:52:30;;;;;;;10.13;4.53;;;16.80;99.90;;;;;;5070906;28;20206;-73
2022/05/17 03:55:00;;;;;;;11.25;4.85;;;16.80;99.90;;;;;;5070781;28;20207;-74
2022/05/17 03:57:27;;;;;;;6.05;3.90;;;16.60;99.90;;;;;;5070686;28;20340;-73
2022/05/17 03:59:53;;;;;;;7.50;4.00;;;16.70;99.90;;;;;;5070453;28;20274;-73
2022/05/17 04:02:19;;;;;;;5.80;3.97;;;16.60;99.90;;;;;;5053432;28;20199;-72
2022/05/17 04:04:45;;;;;;;9.65;4.20;;;16.60;99.90;;;;;;5064243;28;20210;-73
2022/05/17 04:07:11;;;;;;;6.68;4.28;;;16.50;99.90;;;;;;5052912;28;20695;-73
2022/05/17 04:09:37;;;;;;;8.27;4.43;;;16.50;99.90;;;;;;5069855;28;20211;-73
2022/05/17 04:12:03;;;;;;;7.93;3.83;;;16.50;99.90;;;;;;5052854;28;20213;-72
2022/05/17 04:14:29;;;;;;;6.15;4.40;;;16.40;99.90;;;;;;5070682;28;20225;-74
2022/05/17 04:16:54;;;;;;;5.85;4.18;;;16.40;99.90;;;;;;5071245;28;20207;-73
2022/05/17 04:19:20;;;;;;;10.50;4.95;;;16.40;99.90;;;;;;5069755;28;20639;-73
2022/05/17 04:21:47;;;;;;;9.05;4.30;;;16.30;99.90;;;;;;5044398;28;20297;-72
2022/05/17 04:24:13;;;;;;;7.43;4.07;;;16.30;99.90;;;;;;5070633;28;20588;-72
2022/05/17 04:26:38;;;;;;;9.00;4.43;;;16.30;99.90;;;;;;5070261;28;20202;-72
2022/05/17 04:29:04;;;;;;;7.03;4.60;;;16.30;99.90;;;;;;5070411;28;20182;-73
2022/05/17 04:31:30;;;;;;;8.00;3.95;;;16.30;99.90;;;;;;5070459;28;20790;-73
2022/05/17 04:33:56;;;;;;;8.25;3.97;;;16.30;99.90;;;;;;5065985;28;20198;-76
2022/05/17 04:36:22;;;;;;;7.30;3.90;;;16.20;99.90;;;;;;5052276;28;20201;-70
2022/05/17 04:38:47;;;;;;;6.07;3.90;;;16.10;99.90;;;;;;5069961;28;20203;-73
2022/05/17 04:41:13;;;;;;;5.20;3.72;;;16.10;99.90;;;;;;5052963;28;20206;-72
2022/05/17 04:43:39;;;;;;;5.40;3.58;;;16.10;99.90;;;;;;5052235;28;20586;-73
2022/05/17 04:46:04;;;;;;;6.97;3.72;;;16.20;99.90;;;;;;5052576;28;20682;-72
2022/05/17 04:48:30;;;;;;;7.65;4.20;;;16.20;99.90;;;;;;5069768;28;20214;-72
2022/05/17 04:50:56;;;;;;;9.32;4.32;;;16.00;99.90;;;;;;5074363;28;20297;-73
2022/05/17 04:53:22;;;;;;;6.47;4.20;;;16.00;99.90;;;;;;5063810;28;20190;-73
2022/05/17 04:55:47;;;;;;;8.10;3.85;;;15.90;99.90;;;;;;5094882;28;20195;-73
2022/05/17 04:58:13;;;;;;;8.15;4.28;;;15.80;99.90;;;;;;5075785;28;20199;-72
2022/05/17 05:00:38;;;;;;;8.00;4.25;;;15.70;99.90;;;;;;5094343;28;20210;-72
2022/05/17 05:03:04;;;;;;;8.43;4.10;;;15.60;99.90;;;;;;5076285;28;20202;-73
2022/05/17 05:05:30;;;;;;;7.35;4.28;;;15.70;99.90;;;;;;5094339;28;20178;-72
2022/05/17 05:07:56;;;;;;;6.47;3.97;;;15.80;99.90;;;;;;5094627;28;20183;-72
2022/05/17 05:10:21;;;;;;;5.38;3.78;;;16.00;99.90;;;;;;5093664;28;20205;-72
2022/05/17 05:12:47;;;;;;;6.30;3.88;;;16.00;99.90;;;;;;5094444;28;20581;-72
2022/05/17 05:15:13;;;;;;;6.80;3.90;;;16.00;99.90;;;;;;5094326;28;20210;-74
2022/05/17 05:17:40;;;;;;;7.97;4.13;;;15.90;99.90;;;;;;5093874;28;20227;-73
2022/05/17 05:20:10;;;;;;;6.85;4.05;;;15.80;99.90;;;;;;5075933;28;20182;-72
2022/05/17 05:22:35;;;;;;;5.90;4.55;;;15.80;99.90;;;;;;5090009;28;20210;-72
2022/05/17 05:25:01;;;;;;;8.40;4.43;;;15.80;99.90;;;;;;5081899;28;20245;-72
2022/05/17 05:27:32;;;;;;;5.93;3.83;;;15.70;99.90;;;;;;5093933;28;20650;-73
2022/05/17 05:29:57;;;;;;;6.15;4.18;;;15.70;99.90;;;;;;5093191;28;20205;-73
2022/05/17 05:32:23;;;;;;;7.72;5.10;;;15.50;99.90;;;;;;5094333;28;20557;-73
2022/05/17 05:34:48;;;;;;;9.75;4.40;;;15.50;99.90;;;;;;5093867;28;20195;-73
2022/05/17 05:37:13;;;;;;;7.57;4.68;;;15.30;99.90;;;;;;5075578;28;20216;-73
2022/05/17 05:39:39;;;;;;;8.95;4.65;;;15.20;99.90;;;;;;5074593;28;20206;-72
2022/05/17 05:42:05;;;;;;;8.48;4.50;;;15.10;99.90;;;;;;5075586;28;20287;-73
2022/05/17 05:44:33;;;;;;;9.02;4.93;;;15.20;99.90;;;;;;5093528;28;20189;-72
2022/05/17 05:46:59;;;;;;;7.30;4.50;;;15.40;99.90;;;;;;5090934;22;20214;-74
2022/05/17 05:49:25;;;;;;;9.70;4.93;;;15.50;99.90;;;;;;5091729;28;20311;-74
2022/05/17 05:51:50;;;;;;;7.30;4.78;;;15.70;99.90;;;;;;5093926;28;20195;-74
2022/05/17 05:54:17;;;;;;;8.23;4.88;;;15.70;99.90;;;;;;5085428;28;20599;-74
2022/05/17 05:56:42;;;;;;;8.70;5.35;;;15.70;99.90;;;;;;5075468;28;20561;-74
2022/05/17 05:59:08;;;;;;;9.27;5.20;;;15.80;99.90;;;;;;5093597;28;20191;-74
2022/05/17 06:01:34;;;;;;;8.30;4.90;;;15.80;99.90;;;;;;5093289;28;20305;-74
2022/05/17 06:03:59;;;;;;;6.82;5.10;;;15.80;99.90;;;;;;5075341;28;20284;-74
2022/05/17 06:06:25;;;;;;;7.50;4.93;;;15.90;99.90;;;;;;5093980;28;20293;-75
2022/05/17 06:08:51;;;;;;;8.90;5.20;;;16.10;99.90;;;;;;5090296;28;20218;-75
2022/05/17 06:11:17;;;;;;;9.18;5.55;;;16.10;99.90;;;;;;5093780;28;20171;-75
2022/05/17 06:13:42;;;;;;;10.13;6.03;;;16.20;99.90;;;;;;5075972;28;20209;-74
2022/05/17 06:16:08;;;;;;;9.23;5.15;;;16.20;99.90;;;;;;5093868;28;20267;-75
2022/05/17 06:18:34;;;;;;;8.77;5.78;;;16.30;99.90;;;;;;5092904;28;20237;-75
2022/05/17 06:21:02;;;;;;;6.80;5.25;;;16.30;99.90;;;;;;5073962;28;20736;-75
2022/05/17 06:23:28;;;;;;;11.77;5.20;;;16.30;99.90;;;;;;5067404;28;20271;-75
2022/05/17 06:25:53;;;;;;;9.77;5.20;;;16.40;99.90;;;;;;5093221;28;20249;-75
2022/05/17 06:28:19;;;;;;;8.90;4.75;;;16.50;99.90;;;;;;5092292;28;20671;-75
2022/05/17 06:30:44;;;;;;;11.90;5.68;;;16.30;99.90;;;;;;5093211;28;20717;-76
2022/05/17 06:33:12;;;;;;;9.05;5.22;;;16.40;99.90;;;;;;5074835;28;20218;-75
2022/05/17 06:35:39;;;;;;;8.75;5.47;;;16.40;99.90;;;;;;5075475;28;20193;-75
2022/05/17 06:38:05;;;;;;;9.30;5.25;;;16.40;99.90;;;;;;5093095;28;20238;-76
2022/05/17 06:40:32;;;;;;;7.50;4.93;;;16.20;99.90;;;;;;5092059;28;20512;-75
2022/05/17 06:42:57;;;;;;;7.97;5.28;;;16.30;99.90;;;;;;5092523;28;20599;-75
2022/05/17 06:45:23;;;;;;;10.32;5.13;;;16.40;99.90;;;;;;5092042;28;20218;-75
2022/05/17 06:47:48;;;;;;;10.52;5.22;;;16.40;99.90;;;;;;5099306;28;20236;-75
2022/05/17 06:50:14;;;;;;;7.43;5.78;;;16.50;99.90;;;;;;5094857;28;20189;-75
2022/05/17 06:52:39;;;;;;;11.10;5.57;;;16.60;99.90;;;;;;5098853;28;20224;-75
2022/05/17 06:55:06;;;;;;;11.18;6.25;;;16.60;99.90;;;;;;5093935;28;20205;-76
2022/05/17 06:57:32;;;;;;;10.50;6.05;;;16.60;99.90;;;;;;5107908;28;20710;-75
2022/05/17 06:59:58;;;;;;;9.60;5.82;;;16.60;99.90;;;;;;5105539;28;20296;-75
2022/05/17 07:02:23;;;;;;;12.63;5.97;;;16.70;99.90;;;;;;5100189;28;20210;-75
2022/05/17 07:04:49;;;;;;;7.70;5.50;;;16.90;99.90;;;;;;5111369;28;20212;-75
2022/05/17 07:07:14;;;;;;;8.70;5.47;;;16.90;99.90;;;;;;5106735;27;20646;-75
2022/05/17 07:09:40;;;;;;;9.35;5.57;;;16.90;99.90;;;;;;5105799;27;20216;-74
2022/05/17 07:14:51;;;;;;;10.27;5.22;;;17.00;99.90;;;;;;5108796;28;20216;-74
2022/05/17 07:17:19;;;;;;;7.28;4.78;;;17.10;99.90;;;;;;5129315;27;20202;-75
2022/05/17 07:19:46;;;;;;;9.32;5.43;;;17.40;99.90;;;;;;5131226;28;20225;-74
2022/05/17 07:22:12;;;;;;;12.75;5.53;;;17.80;99.90;;;;;;5115397;28;20210;-75
2022/05/17 07:24:41;;;;;;;8.85;5.32;;;18.20;99.90;;;;;;5095072;28;20372;-74
2022/05/17 07:27:07;;;;;;;12.07;5.75;;;18.60;99.90;;;;;;5101259;28;20226;-75
2022/05/17 07:29:33;;;;;;;10.90;5.28;;;19.00;99.90;;;;;;5110308;28;20264;-74
2022/05/17 07:31:59;;;;;;;10.70;5.72;;;19.30;99.90;;;;;;5113343;28;20535;-76
2022/05/17 07:34:27;;;;;;;6.63;4.93;;;20.00;99.90;;;;;;5111265;28;20713;-74
2022/05/17 07:36:53;;;;;;;9.10;5.38;;;20.40;99.90;;;;;;5110774;28;20229;-73
2022/05/17 07:39:18;;;;;;;8.25;5.35;;;20.70;99.90;;;;;;5099119;28;20237;-78
2022/05/17 07:41:44;;;;;;;7.07;5.10;;;21.00;99.90;;;;;;5098255;28;20262;-76
2022/05/17 07:44:09;;;;;;;9.27;5.63;;;20.80;99.90;;;;;;5113521;28;20747;-75
2022/05/17 07:46:35;;;;;;;14.02;5.80;;;20.50;99.90;;;;;;5106699;28;20213;-76
2022/05/17 07:49:01;;;;;;;10.65;6.65;;;20.30;99.90;;;;;;5116748;27;20722;-76
2022/05/17 07:51:27;;;;;;;8.10;5.50;;;19.90;99.90;;;;;;5096009;28;20201;-74
2022/05/17 07:53:53;;;;;;;10.93;5.82;;;20.00;99.90;;;;;;5107372;27;20224;-74
2022/05/17 07:56:19;;;;;;;12.27;5.97;;;20.10;99.90;;;;;;5111498;28;20662;-74
2022/05/17 07:58:44;;;;;;;8.80;5.82;;;20.00;99.90;;;;;;5110721;28;20205;-74
2022/05/17 08:01:10;;;;;;;9.20;5.88;;;19.90;99.90;;;;;;5111106;28;20211;-73
2022/05/17 08:03:35;;;;;;;11.85;6.20;;;20.00;99.90;;;;;;5117324;27;20239;-73
2022/05/17 08:06:01;;;;;;;9.50;5.25;;;20.10;99.90;;;;;;5093014;28;20565;-76
2022/05/17 08:08:27;;;;;;;7.88;6.22;;;19.90;99.90;;;;;;5110723;28;20185;-75
2022/05/17 08:10:53;;;;;;;10.00;6.35;;;19.90;99.90;;;;;;5112504;28;20169;-77
2022/05/17 08:13:20;;;;;;;11.77;7.07;;;20.00;99.90;;;;;;5112226;28;20224;-76
2022/05/17 08:15:46;;;;;;;9.93;6.18;;;20.00;99.90;;;;;;5093033;28;20236;-75
2022/05/17 08:18:12;;;;;;;10.50;6.35;;;19.80;99.90;;;;;;5092732;28;20209;-76
2022/05/17 08:20:37;;;;;;;14.43;7.20;;;20.00;99.90;;;;;;5117742;28;20201;-75
2022/05/17 08:23:04;;;;;;;8.85;7.07;;;19.80;99.90;;;;;;5090094;28;20162;-75
2022/05/17 08:28:15;;;;;;;14.25;9.23;;;19.90;99.90;;;;;;5117396;27;20356;-76
2022/05/17 08:30:41;;;;;;;15.27;7.50;;;20.30;99.90;;;;;;5118352;27;20213;-75
2022/05/17 08:33:15;;;;;;;14.27;7.75;;;20.50;99.90;;;;;;5126694;27;20210;-75
2022/05/17 08:35:50;;;;;;;12.65;6.72;;;20.70;99.90;;;;;;5118146;27;20191;-76
2022/05/17 08:38:29;;;;;;;13.07;6.72;;;20.70;99.90;;;;;;5117403;28;20188;-76
2022/05/17 08:40:59;;;;;;;8.70;5.93;;;20.80;99.90;;;;;;5118724;27;20295;-77
2022/05/17 08:43:53;;;;;;;9.02;5.95;;;20.90;99.90;;;;;;5118054;27;20607;-77
2022/05/17 08:46:26;;;;;;;11.93;6.88;;;20.80;99.90;;;;;;5114322;27;20205;-72
2022/05/17 08:49:01;;;;;;;10.30;6.80;;;20.60;99.90;;;;;;5117071;27;20267;-73
2022/05/17 08:51:49;;;;;;;10.65;6.80;;;20.70;99.90;;;;;;5117824;27;20291;-73
2022/05/17 08:54:23;;;;;;;12.88;6.63;;;20.70;99.90;;;;;;5101523;27;20211;-76
2022/05/17 08:56:59;;;;;;;11.25;7.25;;;20.70;99.90;;;;;;5116719;28;20280;-73
2022/05/17 08:59:25;;;;;;;13.65;7.28;;;20.90;99.90;;;;;;5117012;27;20654;-74
2022/05/17 09:01:58;;;;;;;9.65;6.72;;;21.00;99.90;;;;;;5118602;28;20204;-73
2022/05/17 09:04:32;;;;;;;9.85;6.40;;;21.30;99.90;;;;;;5117100;27;20202;-74
2022/05/17 09:07:19;;;;;;;17.70;6.32;;;21.50;99.90;;;;;;5117792;27;20205;-75
2022/05/17 09:09:58;;;;;;;8.27;6.28;;;21.90;99.90;;;;;;5115686;28;20225;-74
2022/05/17 09:12:37;;;;;;;10.43;6.15;;;22.10;99.90;;;;;;5117479;27;20201;-75
2022/05/17 09:15:05;;;;;;;8.95;5.93;;;22.40;99.90;;;;;;5117521;27;20219;-75
2022/05/17 09:17:31;;;;;;;8.18;5.93;;;22.60;99.90;;;;;;5116010;27;20193;-75
2022/05/17 09:19:57;;;;;;;8.20;5.95;;;22.50;99.90;;;;;;5117296;28;20253;-76
2022/05/17 09:22:23;;;;;;;9.15;6.15;;;22.80;99.90;;;;;;5118793;28;20205;-75
2022/05/17 09:24:59;;;;;;;10.27;5.78;;;22.80;99.90;;;;;;5104024;27;20301;-74
2022/05/17 09:27:39;;;;;;;9.30;5.15;;;23.10;99.90;;;;;;5116049;28;20213;-75
2022/05/17 09:30:25;;;;;;;10.95;5.82;;;23.20;99.90;;;;;;5116972;27;20224;-75
2022/05/17 09:33:11;;;;;;;10.32;6.45;;;23.60;99.90;;;;;;5100484;28;20212;-73
2022/05/17 09:35:57;;;;;;;7.00;5.50;;;24.10;99.90;;;;;;5105957;28;20177;-74
2022/05/17 09:38:23;;;;;;;9.20;6.03;;;24.10;99.90;;;;;;5113454;28;20194;-73
2022/05/17 09:40:51;;;;;;;9.40;6.05;;;24.10;99.90;;;;;;5112911;28;20216;-73
2022/05/17 09:43:38;;;;;;;14.00;6.00;;;24.10;99.90;;;;;;5114085;28;20201;-75
2022/05/17 09:46:13;;;;;;;10.43;6.10;;;23.60;99.90;;;;;;5112416;28;20197;-74
2022/05/17 09:54:37;;;;;;;12.07;7.05;;;23.80;99.90;;;;;;5110047;27;20293;-73
2022/05/17 09:57:22;;;;;;;10.93;6.40;;;23.40;99.90;;;;;;5114298;28;20734;-76
2022/05/17 09:59:52;;;;;;;9.77;6.35;;;23.30;99.90;;;;;;5094549;28;20238;-76
2022/05/17 10:02:30;;;;;;;11.35;6.35;;;23.20;99.90;;;;;;5095995;28;20205;-76
2022/05/17 10:04:56;;;;;;;9.10;5.90;;;23.00;99.90;;;;;;5113773;28;20205;-77
2022/05/17 10:07:26;;;;;;;9.15;6.10;;;23.20;99.90;;;;;;5120313;27;20205;-76
2022/05/17 10:09:52;;;;;;;8.40;5.88;;;23.20;99.90;;;;;;5112804;28;20236;-76
2022/05/17 10:12:31;;;;;;;9.48;5.00;;;23.00;99.90;;;;;;5095306;28;20705;-75
2022/05/17 10:15:03;;;;;;;10.13;5.22;;;23.20;99.90;;;;;;5113664;28;20287;-76
2022/05/17 10:17:35;;;;;;;9.98;5.05;;;23.20;99.90;;;;;;5122653;27;20735;-74
2022/05/17 10:20:17;;;;;;;8.23;4.63;;;23.40;99.90;;;;;;5133906;27;20169;-75
2022/05/17 10:22:55;;;;;;;5.28;4.05;;;23.00;99.90;;;;;;5127209;27;20645;-77
2022/05/17 10:25:41;;;;;;;10.00;4.90;;;23.10;99.90;;;;;;5109629;28;20206;-77
2022/05/17 10:28:38;;;;;;;7.03;4.50;;;23.30;99.90;;;;;;5093811;28;20820;-74
2022/05/17 10:31:18;;;;;;;7.15;4.50;;;23.50;99.90;;;;;;5112757;28;20213;-73
2022/05/17 10:33:48;;;;;;;9.23;4.60;;;23.60;99.90;;;;;;5112733;28;20292;-74
2022/05/17 10:36:42;;;;;;;9.20;4.63;;;23.90;99.90;;;;;;5112703;28;20713;-75
2022/05/17 10:39:55;;;;;;;7.63;5.07;;;23.60;99.90;;;;;;5093817;28;20600;-78
2022/05/17 10:42:21;;;;;;;5.95;4.35;;;23.50;99.90;;;;;;5090123;28;20240;-75
2022/05/17 10:44:51;;;;;;;8.02;4.50;;;23.10;99.90;;;;;;5112686;28;20209;-74
2022/05/17 10:47:58;;;;;;;8.30;4.60;;;22.80;99.90;;;;;;5112167;28;20245;-75
2022/05/17 10:50:36;;;;;;;8.07;4.30;;;22.90;99.90;;;;;;5113050;28;20202;-74
2022/05/17 10:53:18;;;;;;;6.53;3.90;;;22.80;99.90;;;;;;5102368;28;20231;-76
2022/05/17 10:56:04;;;;;;;6.75;3.53;;;22.70;99.90;;;;;;5081733;28;20241;-76
2022/05/17 10:59:21;;;;;;;9.43;4.47;;;22.60;99.90;;;;;;5083169;28;20210;-74
2022/05/17 11:02:06;;;;;;;6.35;4.18;;;22.30;99.90;;;;;;5043153;28;20206;-76
2022/05/17 11:04:59;;;;;;;8.32;4.03;;;22.70;99.90;;;;;;5080524;28;20225;-76
2022/05/17 11:07:36;;;;;;;7.25;4.38;;;22.90;99.90;;;;;;5093784;28;20262;-75
2022/05/17 11:10:20;;;;;;;7.95;4.35;;;22.90;99.90;;;;;;5111995;28;20205;-74
2022/05/17 11:12:51;;;;;;;7.93;4.45;;;23.00;99.90;;;;;;5113182;28;20198;-74
2022/05/17 11:15:23;;;;;;;5.85;4.00;;;22.90;99.90;;;;;;5127184;28;20227;-75
2022/05/17 11:18:04;;;;;;;6.65;4.10;;;22.80;99.90;;;;;;5131648;28;20213;-77
2022/05/17 11:20:38;;;;;;;8.25;3.80;;;22.80;99.90;;;;;;5101658;28;20209;-74
2022/05/17 11:23:34;;;;;;;6.85;4.55;;;22.70;99.90;;;;;;5096626;28;20174;-75
2022/05/17 11:26:33;;;;;;;6.32;3.88;;;22.80;99.90;;;;;;5098640;28;20281;-76
2022/05/17 11:29:10;;;;;;;5.93;4.18;;;23.10;99.90;;;;;;5104848;28;20289;-75
2022/05/17 11:31:56;;;;;;;7.45;4.32;;;23.20;99.90;;;;;;5111721;28;20217;-75
2022/05/17 11:34:22;;;;;;;10.68;4.40;;;23.20;99.90;;;;;;5111268;28;20211;-76
2022/05/17 11:36:48;;;;;;;7.00;4.30;;;23.50;99.90;;;;;;5111542;28;20202;-74
2022/05/17 11:39:32;;;;;;;9.32;4.18;;;23.70;99.90;;;;;;5111474;28;20213;-74
2022/05/17 11:42:33;;;;;;;9.60;4.22;;;24.10;99.90;;;;;;5107474;28;20213;-74
2022/05/17 11:45:44;;;;;;;6.95;3.92;;;24.40;99.90;;;;;;5112019;28;20288;-75
2022/05/17 11:48:16;;;;;;;8.43;4.07;;;24.40;99.90;;;;;;5053556;22;20222;-71
2022/05/17 11:50:52;;;;;;;10.52;4.18;;;24.20;99.90;;;;;;5070610;28;20252;-72
2022/05/17 11:53:23;;;;;;;7.05;4.40;;;24.40;99.90;;;;;;5071325;28;20178;-71
2022/05/17 11:56:13;;;;;;;8.57;5.28;;;24.60;99.90;;;;;;5069376;28;20626;-72
2022/05/17 11:58:40;;;;;;;6.45;5.18;;;24.70;99.90;;;;;;5069506;28;20229;-71
2022/05/17 12:01:29;;;;;;;7.78;4.82;;;24.70;99.90;;;;;;5069548;28;20234;-72
2022/05/17 12:04:20;;;;;;;7.72;4.25;;;24.70;99.90;;;;;;5042375;28;20213;-71
2022/05/17 12:06:48;;;;;;;9.38;5.35;;;24.60;99.90;;;;;;5070673;28;20551;-71
2022/05/17 12:09:22;;;;;;;4.93;3.90;;;24.50;99.90;;;;;;5070170;28;20601;-72
2022/05/17 12:12:16;;;;;;;5.72;4.00;;;24.40;99.90;;;;;;5070894;28;20238;-69
2022/05/17 12:15:03;;;;;;;10.80;7.43;;;24.50;99.90;;;;;;5070690;28;20210;-71
2022/05/17 12:17:44;;;;;;;6.45;4.85;;;24.50;99.90;;;;;;5070661;28;20167;-73
2022/05/17 12:20:12;;;;;;;6.47;4.20;;;24.40;99.90;;;;;;5070899;28;20171;-72
2022/05/17 12:23:00;;;;;;;7.13;4.13;;;24.40;99.90;;;;;;5069971;28;20222;-72
2022/05/17 12:25:35;;;;;;;5.15;3.67;;;24.30;99.90;;;;;;5070594;28;20213;-72
2022/05/17 12:28:01;;;;;;;7.72;3.83;;;24.30;99.90;;;;;;5069991;28;20210;-71
2022/05/17 12:33:20;;;;;;;5.47;3.55;;;24.70;99.90;;;;;;5070722;28;20221;-71
2022/05/17 12:35:47;;;;;;;6.60;3.70;;;24.70;99.90;;;;;;5070491;28;20211;-71
2022/05/17 12:44:07;;;;;;;5.53;3.45;;;24.50;99.90;;;;;;5070709;28;20980;-73
2022/05/17 12:46:36;;;;;;;5.20;3.65;;;24.50;99.90;;;;;;5063445;28;20207;-72
2022/05/17 12:49:15;;;;;;;7.40;3.85;;;24.60;99.90;;;;;;5069571;28;20298;-69
2022/05/17 12:51:41;;;;;;;7.30;3.10;;;24.60;99.90;;;;;;5070131;28;20206;-71
2022/05/17 12:54:13;;;;;;;7.60;3.30;;;24.70;99.90;;;;;;5057236;28;20211;-72
2022/05/17 12:56:43;;;;;;;6.22;3.20;;;24.80;99.90;;;;;;5051890;28;20735;-70
2022/05/17 12:59:10;;;;;;;7.07;4.25;;;24.60;99.90;;;;;;5070356;28;20186;-70
2022/05/17 13:01:51;;;;;;;6.82;3.40;;;24.50;99.90;;;;;;5070076;28;20215;-71
2022/05/17 13:04:17;;;;;;;5.30;4.15;;;24.70;99.90;;;;;;5070089;28;20195;-70
2022/05/17 13:06:50;;;;;;;6.63;3.63;;;24.60;99.90;;;;;;5068433;28;20569;-72
2022/05/17 13:09:20;;;;;;;5.22;3.33;;;24.70;99.90;;;;;;5068079;28;20220;-72
2022/05/17 13:11:45;;;;;;;5.00;3.53;;;24.40;99.90;;;;;;5073460;28;20244;-73
2022/05/17 13:14:22;;;;;;;8.20;3.58;;;24.30;99.90;;;;;;5072700;28;20208;-72
2022/05/17 13:16:50;;;;;;;7.18;3.70;;;24.30;99.90;;;;;;5073747;28;20207;-72
2022/05/17 13:19:19;;;;;;;6.50;3.05;;;24.10;99.90;;;;;;5072340;28;20206;-72
2022/05/17 13:21:54;;;;;;;3.72;2.92;;;23.90;99.90;;;;;;5072593;28;20868;-70
2022/05/17 13:24:34;;;;;;;4.88;3.47;;;23.80;99.90;;;;;;5073348;28;20706;-72